sensor_id;sensor_type;location;lat;lon;timestamp;P1;P2;P0
56360;PMS7003;42611;51.132;13.588;2023-06-22T00:02:02;17.6;17.3;
56360;PMS7003;42611;51.132;13.588;2023-06-22T00:17:02;17.9;16.8;
56360;PMS7003;42611;51.132;13.588;2023-06-22T00:22:01;17.6;16.7;
56360;PMS7003;42611;51.132;13.588;2023-06-22T00:27:01;18.7;17.4;
56360;PMS7003;42611;51.132;13.588;2023-06-22T00:32:01;19.1;18.0;
56360;PMS7003;42611;51.132;13.588;2023-06-22T00:37:02;19.6;18.5;
56360;PMS7003;42611;51.132;13.588;2023-06-22T00:42:01;19.7;18.7;
56360;PMS7003;42611;51.132;13.588;2023-06-22T00:47:01;20.3;19.3;
56360;PMS7003;42611;51.132;13.588;2023-06-22T00:52:02;20.2;19.5;
56360;PMS7003;42611;51.132;13.588;2023-06-22T00:57:01;19.8;19.3;
56360;PMS7003;42611;51.132;13.588;2023-06-22T01:07:04;20.1;19.6;
56360;PMS7003;42611;51.132;13.588;2023-06-22T01:12:02;20.2;19.7;
56360;PMS7003;42611;51.132;13.588;2023-06-22T01:17:01;21.4;20.8;
56360;PMS7003;42611;51.132;13.588;2023-06-22T01:22:01;20.6;20.1;
56360;PMS7003;42611;51.132;13.588;2023-06-22T01:32:04;21.5;21.1;
56360;PMS7003;42611;51.132;13.588;2023-06-22T01:37:01;21.6;21.0;
56360;PMS7003;42611;51.132;13.588;2023-06-22T01:42:01;20.8;19.9;
56360;PMS7003;42611;51.132;13.588;2023-06-22T01:47:01;22.4;21.6;
56360;PMS7003;42611;51.132;13.588;2023-06-22T01:57:01;22.8;22.1;
56360;PMS7003;42611;51.132;13.588;2023-06-22T02:02:07;24.8;23.6;
56360;PMS7003;42611;51.132;13.588;2023-06-22T02:07:01;24.6;23.6;
56360;PMS7003;42611;51.132;13.588;2023-06-22T02:12:12;23.8;22.9;
56360;PMS7003;42611;51.132;13.588;2023-06-22T02:17:01;24.1;22.8;
56360;PMS7003;42611;51.132;13.588;2023-06-22T02:22:01;22.8;21.5;
56360;PMS7003;42611;51.132;13.588;2023-06-22T02:27:01;19.9;18.9;
56360;PMS7003;42611;51.132;13.588;2023-06-22T02:32:01;20.8;19.6;
56360;PMS7003;42611;51.132;13.588;2023-06-22T02:42:01;20.2;19.3;
56360;PMS7003;42611;51.132;13.588;2023-06-22T02:47:01;20.1;19.4;
56360;PMS7003;42611;51.132;13.588;2023-06-22T02:52:01;21.5;20.5;
56360;PMS7003;42611;51.132;13.588;2023-06-22T02:57:01;21.9;21.0;
56360;PMS7003;42611;51.132;13.588;2023-06-22T03:07:01;22.8;21.6;
56360;PMS7003;42611;51.132;13.588;2023-06-22T03:12:01;23.8;22.6;
56360;PMS7003;42611;51.132;13.588;2023-06-22T03:22:01;23.4;22.7;
56360;PMS7003;42611;51.132;13.588;2023-06-22T03:27:01;26.0;24.8;
56360;PMS7003;42611;51.132;13.588;2023-06-22T03:32:01;25.6;24.6;
56360;PMS7003;42611;51.132;13.588;2023-06-22T03:37:11;25.4;24.4;
56360;PMS7003;42611;51.132;13.588;2023-06-22T03:42:01;27.4;25.5;
56360;PMS7003;42611;51.132;13.588;2023-06-22T03:57:02;27.8;25.8;
56360;PMS7003;42611;51.132;13.588;2023-06-22T04:02:01;28.4;26.6;
56360;PMS7003;42611;51.132;13.588;2023-06-22T04:07:01;26.7;25.6;
56360;PMS7003;42611;51.132;13.588;2023-06-22T04:12:01;27.3;26.1;
56360;PMS7003;42611;51.132;13.588;2023-06-22T04:17:02;27.4;26.2;
56360;PMS7003;42611;51.132;13.588;2023-06-22T04:22:02;28.8;27.4;
56360;PMS7003;42611;51.132;13.588;2023-06-22T04:27:01;29.2;27.8;
56360;PMS7003;42611;51.132;13.588;2023-06-22T04:32:01;30.3;28.6;
56360;PMS7003;42611;51.132;13.588;2023-06-22T04:37:01;30.0;28.4;
56360;PMS7003;42611;51.132;13.588;2023-06-22T04:42:02;28.4;27.5;
56360;PMS7003;42611;51.132;13.588;2023-06-22T04:47:03;28.1;27.3;
56360;PMS7003;42611;51.132;13.588;2023-06-22T04:52:05;28.8;27.7;
56360;PMS7003;42611;51.132;13.588;2023-06-22T04:57:02;29.1;28.0;
56360;PMS7003;42611;51.132;13.588;2023-06-22T05:02:02;30.9;29.0;
56360;PMS7003;42611;51.132;13.588;2023-06-22T05:07:01;33.4;30.4;
56360;PMS7003;42611;51.132;13.588;2023-06-22T05:13:02;33.6;30.7;
56360;PMS7003;42611;51.132;13.588;2023-06-22T05:18:03;34.0;30.8;
56360;PMS7003;42611;51.132;13.588;2023-06-22T05:23:02;33.6;30.8;
56360;PMS7003;42611;51.132;13.588;2023-06-22T05:28:02;32.9;30.5;
56360;PMS7003;42611;51.132;13.588;2023-06-22T05:33:02;33.2;30.4;
56360;PMS7003;42611;51.132;13.588;2023-06-22T05:38:01;32.7;29.9;
56360;PMS7003;42611;51.132;13.588;2023-06-22T05:43:01;32.2;29.7;
56360;PMS7003;42611;51.132;13.588;2023-06-22T05:48:01;33.7;29.8;
56360;PMS7003;42611;51.132;13.588;2023-06-22T05:53:02;33.2;29.4;
56360;PMS7003;42611;51.132;13.588;2023-06-22T05:58:01;32.2;29.4;
56360;PMS7003;42611;51.132;13.588;2023-06-22T06:03:02;32.0;29.0;
56360;PMS7003;42611;51.132;13.588;2023-06-22T06:08:03;30.5;27.1;
56360;PMS7003;42611;51.132;13.588;2023-06-22T06:13:01;28.8;26.2;
56360;PMS7003;42611;51.132;13.588;2023-06-22T06:18:01;27.8;25.4;
56360;PMS7003;42611;51.132;13.588;2023-06-22T06:23:01;26.4;24.0;
56360;PMS7003;42611;51.132;13.588;2023-06-22T06:28:02;25.4;23.1;
56360;PMS7003;42611;51.132;13.588;2023-06-22T06:33:02;25.7;23.9;
56360;PMS7003;42611;51.132;13.588;2023-06-22T06:38:02;25.8;24.5;
56360;PMS7003;42611;51.132;13.588;2023-06-22T06:43:01;26.6;25.1;
56360;PMS7003;42611;51.132;13.588;2023-06-22T06:48:07;26.5;25.6;
56360;PMS7003;42611;51.132;13.588;2023-06-22T06:53:02;27.6;26.9;
56360;PMS7003;42611;51.132;13.588;2023-06-22T06:58:03;28.1;26.9;
56360;PMS7003;42611;51.132;13.588;2023-06-22T07:03:02;27.4;26.3;
56360;PMS7003;42611;51.132;13.588;2023-06-22T07:08:02;27.0;26.0;
56360;PMS7003;42611;51.132;13.588;2023-06-22T07:13:02;27.8;26.6;
56360;PMS7003;42611;51.132;13.588;2023-06-22T07:19:02;27.1;26.0;
56360;PMS7003;42611;51.132;13.588;2023-06-22T07:24:02;25.6;25.3;
56360;PMS7003;42611;51.132;13.588;2023-06-22T07:29:02;25.8;25.2;
56360;PMS7003;42611;51.132;13.588;2023-06-22T07:34:02;25.7;25.2;
56360;PMS7003;42611;51.132;13.588;2023-06-22T07:39:01;24.2;23.5;
56360;PMS7003;42611;51.132;13.588;2023-06-22T07:44:02;23.2;22.4;
56360;PMS7003;42611;51.132;13.588;2023-06-22T07:49:01;23.7;22.9;
56360;PMS7003;42611;51.132;13.588;2023-06-22T07:54:01;22.8;22.1;
56360;PMS7003;42611;51.132;13.588;2023-06-22T07:59:01;23.1;22.3;
56360;PMS7003;42611;51.132;13.588;2023-06-22T08:04:02;23.6;23.0;
56360;PMS7003;42611;51.132;13.588;2023-06-22T08:09:02;24.7;24.3;
56360;PMS7003;42611;51.132;13.588;2023-06-22T08:19:01;26.4;25.8;
56360;PMS7003;42611;51.132;13.588;2023-06-22T08:25:01;25.7;25.2;
56360;PMS7003;42611;51.132;13.588;2023-06-22T08:30:03;25.3;24.8;
56360;PMS7003;42611;51.132;13.588;2023-06-22T08:35:01;25.2;24.6;
56360;PMS7003;42611;51.132;13.588;2023-06-22T08:40:02;25.7;25.1;
56360;PMS7003;42611;51.132;13.588;2023-06-22T08:45:02;23.5;23.1;
56360;PMS7003;42611;51.132;13.588;2023-06-22T08:50:01;23.6;23.0;
56360;PMS7003;42611;51.132;13.588;2023-06-22T08:55:01;23.3;23.0;
56360;PMS7003;42611;51.132;13.588;2023-06-22T09:00:02;23.2;22.9;
56360;PMS7003;42611;51.132;13.588;2023-06-22T09:05:03;22.0;21.5;
56360;PMS7003;42611;51.132;13.588;2023-06-22T09:10:05;22.3;21.8;
56360;PMS7003;42611;51.132;13.588;2023-06-22T09:15:02;21.2;21.0;
56360;PMS7003;42611;51.132;13.588;2023-06-22T09:20:01;20.1;19.8;
56360;PMS7003;42611;51.132;13.588;2023-06-22T09:25:04;18.8;18.6;
56360;PMS7003;42611;51.132;13.588;2023-06-22T09:30:02;19.8;19.4;
56360;PMS7003;42611;51.132;13.588;2023-06-22T09:35:05;20.7;20.3;
56360;PMS7003;42611;51.132;13.588;2023-06-22T09:40:02;22.1;21.6;
56360;PMS7003;42611;51.132;13.588;2023-06-22T09:45:02;23.3;22.9;
56360;PMS7003;42611;51.132;13.588;2023-06-22T09:50:02;24.1;23.3;
56360;PMS7003;42611;51.132;13.588;2023-06-22T09:55:02;23.6;22.7;
56360;PMS7003;42611;51.132;13.588;2023-06-22T10:00:02;22.6;21.8;
56360;PMS7003;42611;51.132;13.588;2023-06-22T10:05:05;21.2;20.3;
56360;PMS7003;42611;51.132;13.588;2023-06-22T10:10:01;20.9;19.9;
56360;PMS7003;42611;51.132;13.588;2023-06-22T10:15:05;20.6;20.0;
56360;PMS7003;42611;51.132;13.588;2023-06-22T10:20:01;20.1;19.9;
56360;PMS7003;42611;51.132;13.588;2023-06-22T10:25:03;20.4;20.2;
56360;PMS7003;42611;51.132;13.588;2023-06-22T10:30:02;20.4;20.2;
56360;PMS7003;42611;51.132;13.588;2023-06-22T10:35:01;20.8;20.5;
56360;PMS7003;42611;51.132;13.588;2023-06-22T10:40:01;21.0;20.7;
56360;PMS7003;42611;51.132;13.588;2023-06-22T10:45:02;21.2;20.5;
56360;PMS7003;42611;51.132;13.588;2023-06-22T10:50:01;21.9;21.2;
56360;PMS7003;42611;51.132;13.588;2023-06-22T10:55:02;22.3;21.2;
56360;PMS7003;42611;51.132;13.588;2023-06-22T11:00:02;21.1;20.2;
56360;PMS7003;42611;51.132;13.588;2023-06-22T11:05:02;21.3;20.3;
56360;PMS7003;42611;51.132;13.588;2023-06-22T11:10:02;21.5;20.6;
56360;PMS7003;42611;51.132;13.588;2023-06-22T11:15:02;20.4;19.6;
56360;PMS7003;42611;51.132;13.588;2023-06-22T11:20:01;22.1;21.2;
56360;PMS7003;42611;51.132;13.588;2023-06-22T11:31:17;21.7;20.9;
56360;PMS7003;42611;51.132;13.588;2023-06-22T11:36:02;20.8;20.3;
56360;PMS7003;42611;51.132;13.588;2023-06-22T11:41:01;20.7;20.0;
56360;PMS7003;42611;51.132;13.588;2023-06-22T11:46:01;19.6;19.2;
56360;PMS7003;42611;51.132;13.588;2023-06-22T11:51:02;20.5;20.1;
56360;PMS7003;42611;51.132;13.588;2023-06-22T11:56:02;20.4;19.9;
56360;PMS7003;42611;51.132;13.588;2023-06-22T12:01:01;23.4;22.4;
56360;PMS7003;42611;51.132;13.588;2023-06-22T12:06:03;24.0;22.8;
56360;PMS7003;42611;51.132;13.588;2023-06-22T12:11:01;23.4;22.3;
56360;PMS7003;42611;51.132;13.588;2023-06-22T12:16:01;22.9;21.8;
56360;PMS7003;42611;51.132;13.588;2023-06-22T12:21:01;23.0;21.9;
56360;PMS7003;42611;51.132;13.588;2023-06-22T12:26:01;21.6;20.5;
56360;PMS7003;42611;51.132;13.588;2023-06-22T12:36:02;21.8;21.2;
56360;PMS7003;42611;51.132;13.588;2023-06-22T12:41:01;21.7;21.2;
56360;PMS7003;42611;51.132;13.588;2023-06-22T12:46:02;22.5;22.0;
56360;PMS7003;42611;51.132;13.588;2023-06-22T12:51:01;20.8;20.7;
56360;PMS7003;42611;51.132;13.588;2023-06-22T12:56:02;21.0;20.7;
56360;PMS7003;42611;51.132;13.588;2023-06-22T13:01:01;21.1;20.9;
56360;PMS7003;42611;51.132;13.588;2023-06-22T13:11:01;20.9;20.5;
56360;PMS7003;42611;51.132;13.588;2023-06-22T13:16:01;22.3;21.5;
56360;PMS7003;42611;51.132;13.588;2023-06-22T13:21:01;21.7;21.2;
56360;PMS7003;42611;51.132;13.588;2023-06-22T13:26:01;22.1;21.5;
56360;PMS7003;42611;51.132;13.588;2023-06-22T13:31:01;22.5;21.7;
56360;PMS7003;42611;51.132;13.588;2023-06-22T13:36:02;21.6;20.9;
56360;PMS7003;42611;51.132;13.588;2023-06-22T13:41:06;21.0;20.6;
56360;PMS7003;42611;51.132;13.588;2023-06-22T13:46:01;20.6;20.3;
56360;PMS7003;42611;51.132;13.588;2023-06-22T13:51:02;20.5;20.2;
56360;PMS7003;42611;51.132;13.588;2023-06-22T13:56:01;20.6;20.3;
56360;PMS7003;42611;51.132;13.588;2023-06-22T14:01:01;21.6;21.2;
56360;PMS7003;42611;51.132;13.588;2023-06-22T14:06:01;21.8;21.4;
56360;PMS7003;42611;51.132;13.588;2023-06-22T14:11:01;22.4;21.6;
56360;PMS7003;42611;51.132;13.588;2023-06-22T14:16:01;22.0;21.2;
56360;PMS7003;42611;51.132;13.588;2023-06-22T14:21:02;21.4;20.8;
56360;PMS7003;42611;51.132;13.588;2023-06-22T14:26:01;20.9;20.4;
56360;PMS7003;42611;51.132;13.588;2023-06-22T14:31:01;21.0;20.2;
56360;PMS7003;42611;51.132;13.588;2023-06-22T14:36:02;20.8;20.0;
56360;PMS7003;42611;51.132;13.588;2023-06-22T14:41:16;21.0;20.1;
56360;PMS7003;42611;51.132;13.588;2023-06-22T14:46:01;21.3;20.4;
56360;PMS7003;42611;51.132;13.588;2023-06-22T14:51:02;21.9;21.0;
56360;PMS7003;42611;51.132;13.588;2023-06-22T14:56:02;21.8;21.2;
56360;PMS7003;42611;51.132;13.588;2023-06-22T15:01:06;21.3;21.1;
56360;PMS7003;42611;51.132;13.588;2023-06-22T15:06:01;21.5;21.2;
56360;PMS7003;42611;51.132;13.588;2023-06-22T15:16:02;21.6;21.0;
56360;PMS7003;42611;51.132;13.588;2023-06-22T15:21:03;22.1;21.4;
56360;PMS7003;42611;51.132;13.588;2023-06-22T15:26:03;23.2;22.1;
56360;PMS7003;42611;51.132;13.588;2023-06-22T15:31:01;23.6;22.6;
56360;PMS7003;42611;51.132;13.588;2023-06-22T15:36:01;23.4;22.6;
56360;PMS7003;42611;51.132;13.588;2023-06-22T15:41:02;21.7;21.0;
56360;PMS7003;42611;51.132;13.588;2023-06-22T15:46:01;22.2;20.9;
56360;PMS7003;42611;51.132;13.588;2023-06-22T15:51:01;22.5;20.8;
56360;PMS7003;42611;51.132;13.588;2023-06-22T15:56:01;21.6;20.2;
56360;PMS7003;42611;51.132;13.588;2023-06-22T16:01:03;22.1;20.6;
56360;PMS7003;42611;51.132;13.588;2023-06-22T16:06:01;23.3;21.8;
56360;PMS7003;42611;51.132;13.588;2023-06-22T16:11:01;22.5;21.7;
56360;PMS7003;42611;51.132;13.588;2023-06-22T16:16:01;21.8;21.7;
56360;PMS7003;42611;51.132;13.588;2023-06-22T16:21:06;22.6;22.3;
56360;PMS7003;42611;51.132;13.588;2023-06-22T16:26:01;23.1;22.3;
56360;PMS7003;42611;51.132;13.588;2023-06-22T16:31:01;22.8;22.0;
56360;PMS7003;42611;51.132;13.588;2023-06-22T16:36:02;22.9;22.1;
56360;PMS7003;42611;51.132;13.588;2023-06-22T16:41:01;24.0;22.8;
56360;PMS7003;42611;51.132;13.588;2023-06-22T16:46:01;24.9;23.7;
56360;PMS7003;42611;51.132;13.588;2023-06-22T16:56:01;26.6;25.6;
56360;PMS7003;42611;51.132;13.588;2023-06-22T17:01:02;27.1;26.1;
56360;PMS7003;42611;51.132;13.588;2023-06-22T17:06:03;27.0;26.1;
56360;PMS7003;42611;51.132;13.588;2023-06-22T17:11:01;26.4;25.8;
56360;PMS7003;42611;51.132;13.588;2023-06-22T17:21:02;26.6;25.8;
56360;PMS7003;42611;51.132;13.588;2023-06-22T17:26:01;26.0;25.2;
56360;PMS7003;42611;51.132;13.588;2023-06-22T17:31:10;27.1;25.8;
56360;PMS7003;42611;51.132;13.588;2023-06-22T17:36:02;28.3;26.4;
56360;PMS7003;42611;51.132;13.588;2023-06-22T17:41:02;29.8;27.2;
56360;PMS7003;42611;51.132;13.588;2023-06-22T17:46:01;29.1;26.7;
56360;PMS7003;42611;51.132;13.588;2023-06-22T17:51:01;30.0;27.1;
56360;PMS7003;42611;51.132;13.588;2023-06-22T17:56:01;28.8;26.5;
56360;PMS7003;42611;51.132;13.588;2023-06-22T18:01:01;27.5;25.7;
56360;PMS7003;42611;51.132;13.588;2023-06-22T18:06:02;27.2;25.5;
56360;PMS7003;42611;51.132;13.588;2023-06-22T18:11:01;27.5;25.6;
56360;PMS7003;42611;51.132;13.588;2023-06-22T18:16:02;28.1;26.6;
56360;PMS7003;42611;51.132;13.588;2023-06-22T18:21:01;28.5;26.6;
56360;PMS7003;42611;51.132;13.588;2023-06-22T18:26:03;28.8;27.0;
56360;PMS7003;42611;51.132;13.588;2023-06-22T18:31:01;28.1;26.9;
56360;PMS7003;42611;51.132;13.588;2023-06-22T18:36:07;27.4;26.2;
56360;PMS7003;42611;51.132;13.588;2023-06-22T18:41:01;26.9;25.6;
56360;PMS7003;42611;51.132;13.588;2023-06-22T18:46:36;28.4;26.8;
56360;PMS7003;42611;51.132;13.588;2023-06-22T18:52:03;29.1;27.0;
56360;PMS7003;42611;51.132;13.588;2023-06-22T18:57:02;29.5;27.0;
56360;PMS7003;42611;51.132;13.588;2023-06-22T19:02:01;31.5;28.3;
56360;PMS7003;42611;51.132;13.588;2023-06-22T19:07:01;32.5;29.0;
56360;PMS7003;42611;51.132;13.588;2023-06-22T19:12:18;31.8;28.6;
56360;PMS7003;42611;51.132;13.588;2023-06-22T19:17:01;31.6;28.8;
56360;PMS7003;42611;51.132;13.588;2023-06-22T19:22:01;31.2;28.8;
56360;PMS7003;42611;51.132;13.588;2023-06-22T19:27:01;30.8;29.2;
56360;PMS7003;42611;51.132;13.588;2023-06-22T19:32:02;30.1;29.0;
56360;PMS7003;42611;51.132;13.588;2023-06-22T19:37:01;30.3;29.3;
56360;PMS7003;42611;51.132;13.588;2023-06-22T19:42:01;30.4;29.3;
56360;PMS7003;42611;51.132;13.588;2023-06-22T19:47:02;32.0;30.3;
56360;PMS7003;42611;51.132;13.588;2023-06-22T19:52:05;31.3;29.9;
56360;PMS7003;42611;51.132;13.588;2023-06-22T19:57:02;32.2;30.2;
56360;PMS7003;42611;51.132;13.588;2023-06-22T20:02:01;31.1;29.6;
56360;PMS7003;42611;51.132;13.588;2023-06-22T20:07:02;30.9;29.4;
56360;PMS7003;42611;51.132;13.588;2023-06-22T20:12:08;30.2;28.9;
56360;PMS7003;42611;51.132;13.588;2023-06-22T20:17:03;30.8;28.9;
56360;PMS7003;42611;51.132;13.588;2023-06-22T20:22:05;30.1;28.6;
56360;PMS7003;42611;51.132;13.588;2023-06-22T20:27:01;30.8;28.9;
56360;PMS7003;42611;51.132;13.588;2023-06-22T20:32:03;31.0;29.0;
56360;PMS7003;42611;51.132;13.588;2023-06-22T20:37:01;31.8;29.4;
56360;PMS7003;42611;51.132;13.588;2023-06-22T20:42:01;31.9;29.7;
56360;PMS7003;42611;51.132;13.588;2023-06-22T20:47:02;31.7;29.4;
56360;PMS7003;42611;51.132;13.588;2023-06-22T20:52:01;31.1;29.2;
56360;PMS7003;42611;51.132;13.588;2023-06-22T20:57:01;30.4;28.8;
56360;PMS7003;42611;51.132;13.588;2023-06-22T21:02:01;28.4;27.8;
56360;PMS7003;42611;51.132;13.588;2023-06-22T21:07:01;28.2;27.6;
56360;PMS7003;42611;51.132;13.588;2023-06-22T21:12:01;27.9;27.4;
56360;PMS7003;42611;51.132;13.588;2023-06-22T21:17:01;27.4;26.8;
56360;PMS7003;42611;51.132;13.588;2023-06-22T21:22:01;27.3;26.6;
56360;PMS7003;42611;51.132;13.588;2023-06-22T21:27:02;29.1;27.9;
56360;PMS7003;42611;51.132;13.588;2023-06-22T21:32:02;28.9;27.6;
56360;PMS7003;42611;51.132;13.588;2023-06-22T21:37:02;29.2;27.8;
56360;PMS7003;42611;51.132;13.588;2023-06-22T21:42:01;30.2;28.5;
56360;PMS7003;42611;51.132;13.588;2023-06-22T21:47:02;31.2;29.2;
56360;PMS7003;42611;51.132;13.588;2023-06-22T21:52:03;31.0;29.0;
56360;PMS7003;42611;51.132;13.588;2023-06-22T21:57:02;33.0;30.1;
56360;PMS7003;42611;51.132;13.588;2023-06-22T22:02:02;33.6;30.6;
56360;PMS7003;42611;51.132;13.588;2023-06-22T22:07:02;34.5;30.9;
56360;PMS7003;42611;51.132;13.588;2023-06-22T22:12:01;37.2;32.5;
56360;PMS7003;42611;51.132;13.588;2023-06-22T22:17:01;38.4;33.3;
56360;PMS7003;42611;51.132;13.588;2023-06-22T22:22:01;38.1;33.4;
56360;PMS7003;42611;51.132;13.588;2023-06-22T22:28:02;39.3;34.2;
56360;PMS7003;42611;51.132;13.588;2023-06-22T22:33:02;38.6;34.2;
56360;PMS7003;42611;51.132;13.588;2023-06-22T22:38:01;37.3;33.3;
56360;PMS7003;42611;51.132;13.588;2023-06-22T22:43:02;35.6;31.9;
56360;PMS7003;42611;51.132;13.588;2023-06-22T22:48:02;31.3;28.4;
56360;PMS7003;42611;51.132;13.588;2023-06-22T22:53:03;25.2;23.0;
